sensor_id;sensor_type;location;lat;lon;timestamp;pressure;altitude;pressure_sealevel;temperature;humidity
34034;BME280;63481;52.588;22.472;2023-02-15T00:01:09;101935.80;;;1.72;95.83
34034;BME280;63481;52.588;22.472;2023-02-15T00:02:03;101935.83;;;1.72;95.59
34034;BME280;63481;52.588;22.472;2023-02-15T00:02:56;101941.70;;;1.71;95.42
34034;BME280;63481;52.588;22.472;2023-02-15T00:03:50;101939.39;;;1.71;95.25
34034;BME280;63481;52.588;22.472;2023-02-15T00:04:43;101939.20;;;1.77;95.10
34034;BME280;63481;52.588;22.472;2023-02-15T00:05:40;101937.36;;;1.75;94.98
34034;BME280;63481;52.588;22.472;2023-02-15T00:06:33;101937.52;;;1.73;94.90
34034;BME280;63481;52.588;22.472;2023-02-15T00:07:27;101936.71;;;1.72;94.75
34034;BME280;63481;52.588;22.472;2023-02-15T00:08:20;101935.99;;;1.72;94.75
34034;BME280;63481;52.588;22.472;2023-02-15T00:09:13;101936.48;;;1.70;94.31
34034;BME280;63481;52.588;22.472;2023-02-15T00:10:07;101937.10;;;1.69;94.34
34034;BME280;63481;52.588;22.472;2023-02-15T00:11:08;101935.55;;;1.69;94.10
34034;BME280;63481;52.588;22.472;2023-02-15T00:12:02;101935.19;;;1.69;94.13
34034;BME280;63481;52.588;22.472;2023-02-15T00:12:55;101938.28;;;1.70;93.98
34034;BME280;63481;52.588;22.472;2023-02-15T00:13:48;101935.98;;;1.70;93.99
34034;BME280;63481;52.588;22.472;2023-02-15T00:14:42;101938.73;;;1.68;94.22
34034;BME280;63481;52.588;22.472;2023-02-15T00:15:35;101935.98;;;1.68;93.98
34034;BME280;63481;52.588;22.472;2023-02-15T00:16:28;101935.45;;;1.68;93.86
34034;BME280;63481;52.588;22.472;2023-02-15T00:17:21;101937.66;;;1.64;93.85
34034;BME280;63481;52.588;22.472;2023-02-15T00:18:15;101939.95;;;1.63;93.95
34034;BME280;63481;52.588;22.472;2023-02-15T00:19:09;101941.23;;;1.63;93.97
34034;BME280;63481;52.588;22.472;2023-02-15T00:20:04;101939.58;;;1.61;93.72
34034;BME280;63481;52.588;22.472;2023-02-15T00:20:58;101942.03;;;1.64;93.36
34034;BME280;63481;52.588;22.472;2023-02-15T00:21:55;101940.42;;;1.64;93.47
34034;BME280;63481;52.588;22.472;2023-02-15T00:22:49;101940.94;;;1.64;93.32
34034;BME280;63481;52.588;22.472;2023-02-15T00:23:42;101941.19;;;1.66;93.54
34034;BME280;63481;52.588;22.472;2023-02-15T00:24:36;101937.80;;;1.64;93.10
34034;BME280;63481;52.588;22.472;2023-02-15T00:25:29;101938.33;;;1.62;93.24
34034;BME280;63481;52.588;22.472;2023-02-15T00:26:22;101941.97;;;1.65;93.22
34034;BME280;63481;52.588;22.472;2023-02-15T00:27:16;101943.32;;;1.63;93.31
34034;BME280;63481;52.588;22.472;2023-02-15T00:28:09;101940.05;;;1.62;93.19
34034;BME280;63481;52.588;22.472;2023-02-15T00:29:02;101938.68;;;1.62;93.07
34034;BME280;63481;52.588;22.472;2023-02-15T00:29:55;101942.06;;;1.61;93.27
34034;BME280;63481;52.588;22.472;2023-02-15T00:30:48;101939.88;;;1.60;93.34
34034;BME280;63481;52.588;22.472;2023-02-15T00:31:41;101938.63;;;1.65;93.22
34034;BME280;63481;52.588;22.472;2023-02-15T00:32:37;101935.23;;;1.66;93.21
34034;BME280;63481;52.588;22.472;2023-02-15T00:33:30;101936.08;;;1.64;92.99
34034;BME280;63481;52.588;22.472;2023-02-15T00:34:26;101939.20;;;1.64;93.16
34034;BME280;63481;52.588;22.472;2023-02-15T00:35:19;101937.02;;;1.65;92.83
34034;BME280;63481;52.588;22.472;2023-02-15T00:36:13;101936.03;;;1.62;92.89
34034;BME280;63481;52.588;22.472;2023-02-15T00:37:07;101936.77;;;1.61;92.82
34034;BME280;63481;52.588;22.472;2023-02-15T00:38:00;101938.83;;;1.60;92.94
34034;BME280;63481;52.588;22.472;2023-02-15T00:38:53;101934.40;;;1.65;92.99
34034;BME280;63481;52.588;22.472;2023-02-15T00:39:47;101937.02;;;1.65;92.60
34034;BME280;63481;52.588;22.472;2023-02-15T00:40:43;101936.94;;;1.62;92.75
34034;BME280;63481;52.588;22.472;2023-02-15T00:41:37;101937.65;;;1.64;92.90
34034;BME280;63481;52.588;22.472;2023-02-15T00:42:30;101939.95;;;1.66;92.75
34034;BME280;63481;52.588;22.472;2023-02-15T00:43:24;101937.30;;;1.69;92.50
34034;BME280;63481;52.588;22.472;2023-02-15T00:44:17;101934.04;;;1.65;92.65
34034;BME280;63481;52.588;22.472;2023-02-15T00:45:10;101932.56;;;1.61;92.38
34034;BME280;63481;52.588;22.472;2023-02-15T00:46:04;101932.02;;;1.64;92.50
34034;BME280;63481;52.588;22.472;2023-02-15T00:46:58;101931.58;;;1.63;92.49
34034;BME280;63481;52.588;22.472;2023-02-15T00:47:51;101927.61;;;1.62;92.44
34034;BME280;63481;52.588;22.472;2023-02-15T00:48:44;101929.20;;;1.62;92.41
34034;BME280;63481;52.588;22.472;2023-02-15T00:49:38;101929.11;;;1.63;92.54
34034;BME280;63481;52.588;22.472;2023-02-15T00:50:31;101927.59;;;1.63;92.39
34034;BME280;63481;52.588;22.472;2023-02-15T00:51:25;101928.61;;;1.63;92.25
34034;BME280;63481;52.588;22.472;2023-02-15T00:52:18;101927.63;;;1.62;92.26
34034;BME280;63481;52.588;22.472;2023-02-15T00:53:11;101928.45;;;1.58;92.14
34034;BME280;63481;52.588;22.472;2023-02-15T00:54:05;101925.64;;;1.58;92.22
34034;BME280;63481;52.588;22.472;2023-02-15T00:54:58;101926.94;;;1.59;92.05
34034;BME280;63481;52.588;22.472;2023-02-15T00:55:52;101926.20;;;1.57;91.95
34034;BME280;63481;52.588;22.472;2023-02-15T00:56:46;101925.42;;;1.56;92.01
34034;BME280;63481;52.588;22.472;2023-02-15T00:57:39;101924.26;;;1.55;92.06
34034;BME280;63481;52.588;22.472;2023-02-15T00:58:33;101923.70;;;1.55;92.10
34034;BME280;63481;52.588;22.472;2023-02-15T00:59:26;101921.72;;;1.56;91.93
34034;BME280;63481;52.588;22.472;2023-02-15T01:00:20;101925.09;;;1.56;92.01
34034;BME280;63481;52.588;22.472;2023-02-15T01:01:16;101924.85;;;1.54;92.17
34034;BME280;63481;52.588;22.472;2023-02-15T01:02:09;101922.86;;;1.55;92.27
34034;BME280;63481;52.588;22.472;2023-02-15T01:03:03;101925.23;;;1.54;92.29
34034;BME280;63481;52.588;22.472;2023-02-15T01:03:56;101924.75;;;1.53;91.92
34034;BME280;63481;52.588;22.472;2023-02-15T01:04:49;101929.45;;;1.53;92.22
34034;BME280;63481;52.588;22.472;2023-02-15T01:05:43;101923.73;;;1.52;92.18
34034;BME280;63481;52.588;22.472;2023-02-15T01:06:36;101924.55;;;1.53;92.21
34034;BME280;63481;52.588;22.472;2023-02-15T01:07:29;101922.52;;;1.55;92.41
34034;BME280;63481;52.588;22.472;2023-02-15T01:08:23;101921.13;;;1.55;92.28
34034;BME280;63481;52.588;22.472;2023-02-15T01:09:16;101920.23;;;1.55;92.26
34034;BME280;63481;52.588;22.472;2023-02-15T01:10:09;101920.17;;;1.53;92.17
34034;BME280;63481;52.588;22.472;2023-02-15T01:11:14;101923.10;;;1.54;92.51
34034;BME280;63481;52.588;22.472;2023-02-15T01:12:08;101917.77;;;1.57;92.46
34034;BME280;63481;52.588;22.472;2023-02-15T01:13:02;101918.97;;;1.55;92.23
34034;BME280;63481;52.588;22.472;2023-02-15T01:13:57;101921.71;;;1.54;92.33
34034;BME280;63481;52.588;22.472;2023-02-15T01:14:50;101918.80;;;1.53;92.41
34034;BME280;63481;52.588;22.472;2023-02-15T01:15:44;101919.73;;;1.52;92.42
34034;BME280;63481;52.588;22.472;2023-02-15T01:16:37;101919.40;;;1.52;92.52
34034;BME280;63481;52.588;22.472;2023-02-15T01:17:31;101918.60;;;1.51;92.75
34034;BME280;63481;52.588;22.472;2023-02-15T01:18:25;101920.66;;;1.51;92.79
34034;BME280;63481;52.588;22.472;2023-02-15T01:19:19;101917.29;;;1.60;92.50
34034;BME280;63481;52.588;22.472;2023-02-15T01:20:12;101913.21;;;1.57;92.74
34034;BME280;63481;52.588;22.472;2023-02-15T01:21:13;101913.73;;;1.53;92.50
34034;BME280;63481;52.588;22.472;2023-02-15T01:22:06;101912.25;;;1.54;92.84
34034;BME280;63481;52.588;22.472;2023-02-15T01:23:02;101914.29;;;1.52;92.88
34034;BME280;63481;52.588;22.472;2023-02-15T01:23:55;101910.86;;;1.54;92.56
34034;BME280;63481;52.588;22.472;2023-02-15T01:24:49;101910.89;;;1.53;92.65
34034;BME280;63481;52.588;22.472;2023-02-15T01:25:42;101908.05;;;1.53;92.55
34034;BME280;63481;52.588;22.472;2023-02-15T01:26:36;101908.84;;;1.55;92.68
34034;BME280;63481;52.588;22.472;2023-02-15T01:27:31;101907.17;;;1.54;92.77
34034;BME280;63481;52.588;22.472;2023-02-15T01:28:23;101907.70;;;1.51;92.50
34034;BME280;63481;52.588;22.472;2023-02-15T01:29:16;101909.23;;;1.52;92.62
34034;BME280;63481;52.588;22.472;2023-02-15T01:30:10;101912.11;;;1.53;92.46
34034;BME280;63481;52.588;22.472;2023-02-15T01:31:14;101909.96;;;1.54;92.50
34034;BME280;63481;52.588;22.472;2023-02-15T01:32:07;101913.80;;;1.52;92.63
34034;BME280;63481;52.588;22.472;2023-02-15T01:33:01;101910.02;;;1.53;92.88
34034;BME280;63481;52.588;22.472;2023-02-15T01:33:58;101911.13;;;1.55;92.80
34034;BME280;63481;52.588;22.472;2023-02-15T01:34:51;101912.08;;;1.59;92.68
34034;BME280;63481;52.588;22.472;2023-02-15T01:35:46;101911.13;;;1.60;92.79
34034;BME280;63481;52.588;22.472;2023-02-15T01:36:39;101910.98;;;1.57;92.50
34034;BME280;63481;52.588;22.472;2023-02-15T01:37:33;101908.73;;;1.54;92.75
34034;BME280;63481;52.588;22.472;2023-02-15T01:38:27;101908.06;;;1.56;92.74
34034;BME280;63481;52.588;22.472;2023-02-15T01:39:20;101911.34;;;1.57;92.88
34034;BME280;63481;52.588;22.472;2023-02-15T01:40:16;101910.73;;;1.60;92.72
34034;BME280;63481;52.588;22.472;2023-02-15T01:41:10;101908.00;;;1.64;92.61
34034;BME280;63481;52.588;22.472;2023-02-15T01:42:26;101904.55;;;1.66;92.49
34034;BME280;63481;52.588;22.472;2023-02-15T01:43:19;101901.88;;;1.64;92.76
34034;BME280;63481;52.588;22.472;2023-02-15T01:45:54;101902.39;;;1.62;92.68
34034;BME280;63481;52.588;22.472;2023-02-15T01:46:51;101902.59;;;1.61;92.66
34034;BME280;63481;52.588;22.472;2023-02-15T01:47:49;101899.42;;;1.57;92.59
34034;BME280;63481;52.588;22.472;2023-02-15T01:48:50;101900.67;;;1.56;92.67
34034;BME280;63481;52.588;22.472;2023-02-15T01:49:46;101899.58;;;1.57;92.74
34034;BME280;63481;52.588;22.472;2023-02-15T01:50:43;101893.88;;;1.60;92.71
34034;BME280;63481;52.588;22.472;2023-02-15T01:51:39;101897.59;;;1.60;92.62
34034;BME280;63481;52.588;22.472;2023-02-15T01:52:36;101898.86;;;1.57;92.65
34034;BME280;63481;52.588;22.472;2023-02-15T01:53:34;101897.80;;;1.52;92.80
34034;BME280;63481;52.588;22.472;2023-02-15T01:54:31;101896.21;;;1.52;92.66
34034;BME280;63481;52.588;22.472;2023-02-15T01:55:30;101894.34;;;1.52;92.82
34034;BME280;63481;52.588;22.472;2023-02-15T01:56:29;101893.84;;;1.51;92.86
34034;BME280;63481;52.588;22.472;2023-02-15T01:57:25;101896.62;;;1.52;92.93
34034;BME280;63481;52.588;22.472;2023-02-15T01:58:20;101895.98;;;1.53;92.87
34034;BME280;63481;52.588;22.472;2023-02-15T01:59:17;101890.90;;;1.53;92.78
34034;BME280;63481;52.588;22.472;2023-02-15T02:00:13;101892.60;;;1.51;92.96
34034;BME280;63481;52.588;22.472;2023-02-15T02:01:08;101890.24;;;1.50;92.91
34034;BME280;63481;52.588;22.472;2023-02-15T02:02:02;101891.62;;;1.48;92.79
34034;BME280;63481;52.588;22.472;2023-02-15T02:02:58;101891.18;;;1.50;92.90
34034;BME280;63481;52.588;22.472;2023-02-15T02:04:20;101890.77;;;1.48;93.11
34034;BME280;63481;52.588;22.472;2023-02-15T02:05:17;101888.00;;;1.43;92.89
34034;BME280;63481;52.588;22.472;2023-02-15T02:06:11;101886.92;;;1.40;92.89
34034;BME280;63481;52.588;22.472;2023-02-15T02:07:08;101886.36;;;1.39;93.00
34034;BME280;63481;52.588;22.472;2023-02-15T02:08:02;101890.25;;;1.38;93.05
34034;BME280;63481;52.588;22.472;2023-02-15T02:08:58;101887.42;;;1.43;93.08
34034;BME280;63481;52.588;22.472;2023-02-15T02:09:51;101885.75;;;1.44;92.98
34034;BME280;63481;52.588;22.472;2023-02-15T02:10:45;101889.05;;;1.45;93.03
34034;BME280;63481;52.588;22.472;2023-02-15T02:11:40;101887.11;;;1.43;93.26
34034;BME280;63481;52.588;22.472;2023-02-15T02:12:34;101882.94;;;1.42;93.08
34034;BME280;63481;52.588;22.472;2023-02-15T02:13:29;101886.26;;;1.42;93.15
34034;BME280;63481;52.588;22.472;2023-02-15T02:14:22;101882.84;;;1.44;93.17
34034;BME280;63481;52.588;22.472;2023-02-15T02:15:16;101882.52;;;1.43;92.98
34034;BME280;63481;52.588;22.472;2023-02-15T02:17:27;101877.98;;;1.45;93.02
34034;BME280;63481;52.588;22.472;2023-02-15T02:21:39;101874.77;;;1.49;93.19
34034;BME280;63481;52.588;22.472;2023-02-15T02:27:50;101869.86;;;1.70;92.75
34034;BME280;63481;52.588;22.472;2023-02-15T02:33:58;101865.70;;;1.62;92.47
34034;BME280;63481;52.588;22.472;2023-02-15T02:37:10;101867.80;;;1.55;92.31
34034;BME280;63481;52.588;22.472;2023-02-15T02:39:07;101867.91;;;1.51;92.57
34034;BME280;63481;52.588;22.472;2023-02-15T02:40:27;101866.86;;;1.54;92.33
34034;BME280;63481;52.588;22.472;2023-02-15T02:41:37;101862.88;;;1.53;92.64
34034;BME280;63481;52.588;22.472;2023-02-15T02:42:39;101864.25;;;1.56;92.72
34034;BME280;63481;52.588;22.472;2023-02-15T02:43:51;101865.27;;;1.54;92.58
34034;BME280;63481;52.588;22.472;2023-02-15T02:44:54;101869.14;;;1.59;92.58
34034;BME280;63481;52.588;22.472;2023-02-15T02:46:17;101868.03;;;1.59;92.43
34034;BME280;63481;52.588;22.472;2023-02-15T02:47:22;101871.02;;;1.55;92.54
34034;BME280;63481;52.588;22.472;2023-02-15T02:48:22;101869.56;;;1.53;92.48
34034;BME280;63481;52.588;22.472;2023-02-15T02:49:29;101872.88;;;1.53;92.35
34034;BME280;63481;52.588;22.472;2023-02-15T02:50:26;101873.89;;;1.49;92.41
34034;BME280;63481;52.588;22.472;2023-02-15T02:51:19;101876.70;;;1.41;92.47
34034;BME280;63481;52.588;22.472;2023-02-15T02:52:40;101878.23;;;1.37;92.28
34034;BME280;63481;52.588;22.472;2023-02-15T02:53:34;101881.45;;;1.41;92.58
34034;BME280;63481;52.588;22.472;2023-02-15T02:54:28;101878.02;;;1.42;92.48
34034;BME280;63481;52.588;22.472;2023-02-15T02:55:31;101878.15;;;1.43;92.54
34034;BME280;63481;52.588;22.472;2023-02-15T02:57:26;101877.17;;;1.44;92.33
34034;BME280;63481;52.588;22.472;2023-02-15T02:58:29;101876.38;;;1.39;92.59
34034;BME280;63481;52.588;22.472;2023-02-15T02:59:28;101880.08;;;1.31;92.44
34034;BME280;63481;52.588;22.472;2023-02-15T03:00:25;101876.59;;;1.30;92.66
34034;BME280;63481;52.588;22.472;2023-02-15T03:01:27;101876.76;;;1.23;92.42
34034;BME280;63481;52.588;22.472;2023-02-15T03:02:24;101877.40;;;1.14;92.64
34034;BME280;63481;52.588;22.472;2023-02-15T03:04:18;101874.81;;;1.08;92.62
34034;BME280;63481;52.588;22.472;2023-02-15T03:05:15;101872.63;;;1.07;92.74
34034;BME280;63481;52.588;22.472;2023-02-15T03:06:16;101874.59;;;1.04;92.71
34034;BME280;63481;52.588;22.472;2023-02-15T03:07:17;101877.06;;;1.06;92.94
34034;BME280;63481;52.588;22.472;2023-02-15T03:08:16;101875.14;;;1.06;93.08
34034;BME280;63481;52.588;22.472;2023-02-15T03:09:29;101874.94;;;1.06;92.99
34034;BME280;63481;52.588;22.472;2023-02-15T03:10:37;101873.85;;;1.04;93.18
34034;BME280;63481;52.588;22.472;2023-02-15T03:11:31;101874.67;;;1.02;93.26
34034;BME280;63481;52.588;22.472;2023-02-15T03:12:29;101877.79;;;1.06;93.28
34034;BME280;63481;52.588;22.472;2023-02-15T03:13:24;101878.49;;;1.05;93.37
34034;BME280;63481;52.588;22.472;2023-02-15T03:14:18;101879.06;;;1.02;93.29
34034;BME280;63481;52.588;22.472;2023-02-15T03:15:29;101881.17;;;1.02;93.33
34034;BME280;63481;52.588;22.472;2023-02-15T03:16:46;101879.77;;;1.07;93.40
34034;BME280;63481;52.588;22.472;2023-02-15T03:17:45;101884.13;;;1.07;93.36
34034;BME280;63481;52.588;22.472;2023-02-15T03:18:48;101878.25;;;1.09;93.33
34034;BME280;63481;52.588;22.472;2023-02-15T03:19:48;101879.38;;;1.13;93.25
34034;BME280;63481;52.588;22.472;2023-02-15T03:20:44;101878.20;;;1.12;93.16
34034;BME280;63481;52.588;22.472;2023-02-15T03:21:44;101879.70;;;1.11;93.27
34034;BME280;63481;52.588;22.472;2023-02-15T03:22:53;101877.29;;;1.05;93.27
34034;BME280;63481;52.588;22.472;2023-02-15T03:23:52;101878.05;;;1.09;93.23
34034;BME280;63481;52.588;22.472;2023-02-15T03:25:48;101876.77;;;1.13;93.12
34034;BME280;63481;52.588;22.472;2023-02-15T03:26:45;101878.52;;;1.13;93.35
34034;BME280;63481;52.588;22.472;2023-02-15T03:27:47;101877.98;;;1.07;93.11
34034;BME280;63481;52.588;22.472;2023-02-15T03:28:44;101879.17;;;0.98;93.17
34034;BME280;63481;52.588;22.472;2023-02-15T03:29:39;101880.71;;;0.94;93.28
34034;BME280;63481;52.588;22.472;2023-02-15T03:30:34;101880.15;;;0.92;93.35
34034;BME280;63481;52.588;22.472;2023-02-15T03:31:32;101880.72;;;0.91;93.34
34034;BME280;63481;52.588;22.472;2023-02-15T03:32:28;101885.16;;;0.90;93.46
34034;BME280;63481;52.588;22.472;2023-02-15T03:33:26;101882.95;;;0.89;93.43
34034;BME280;63481;52.588;22.472;2023-02-15T03:34:21;101882.23;;;0.95;93.57
34034;BME280;63481;52.588;22.472;2023-02-15T03:35:14;101886.56;;;0.98;93.75
34034;BME280;63481;52.588;22.472;2023-02-15T03:36:14;101884.17;;;1.00;93.72
34034;BME280;63481;52.588;22.472;2023-02-15T03:39:59;101886.11;;;1.07;93.68
34034;BME280;63481;52.588;22.472;2023-02-15T03:41:14;101884.24;;;1.03;93.85
34034;BME280;63481;52.588;22.472;2023-02-15T03:42:10;101885.98;;;1.06;93.68
34034;BME280;63481;52.588;22.472;2023-02-15T03:44:09;101884.11;;;1.10;93.63
34034;BME280;63481;52.588;22.472;2023-02-15T03:45:09;101881.33;;;1.08;93.52
34034;BME280;63481;52.588;22.472;2023-02-15T03:46:15;101885.78;;;1.09;93.52
34034;BME280;63481;52.588;22.472;2023-02-15T03:47:14;101885.43;;;1.09;93.27
34034;BME280;63481;52.588;22.472;2023-02-15T03:48:08;101881.27;;;1.06;93.25
34034;BME280;63481;52.588;22.472;2023-02-15T03:49:21;101878.05;;;1.02;93.18
34034;BME280;63481;52.588;22.472;2023-02-15T03:50:24;101879.29;;;1.04;93.17
34034;BME280;63481;52.588;22.472;2023-02-15T03:51:40;101877.92;;;0.99;93.10
34034;BME280;63481;52.588;22.472;2023-02-15T03:52:35;101877.73;;;0.94;92.95
34034;BME280;63481;52.588;22.472;2023-02-15T03:53:29;101875.15;;;0.91;93.08
34034;BME280;63481;52.588;22.472;2023-02-15T03:54:26;101875.31;;;0.86;93.12
34034;BME280;63481;52.588;22.472;2023-02-15T03:55:35;101877.94;;;0.83;93.17
34034;BME280;63481;52.588;22.472;2023-02-15T03:56:29;101879.49;;;0.84;93.20
34034;BME280;63481;52.588;22.472;2023-02-15T03:57:26;101882.29;;;0.79;93.40
34034;BME280;63481;52.588;22.472;2023-02-15T03:58:38;101880.54;;;0.76;93.39
34034;BME280;63481;52.588;22.472;2023-02-15T04:00:34;101883.39;;;0.78;93.46
34034;BME280;63481;52.588;22.472;2023-02-15T04:02:10;101877.77;;;0.78;93.50
34034;BME280;63481;52.588;22.472;2023-02-15T04:04:12;101875.58;;;0.74;93.62
34034;BME280;63481;52.588;22.472;2023-02-15T04:05:08;101875.55;;;0.75;93.65
34034;BME280;63481;52.588;22.472;2023-02-15T04:06:03;101873.86;;;0.77;93.75
34034;BME280;63481;52.588;22.472;2023-02-15T04:06:55;101875.18;;;0.77;93.76
34034;BME280;63481;52.588;22.472;2023-02-15T04:07:48;101873.59;;;0.75;93.86
34034;BME280;63481;52.588;22.472;2023-02-15T04:08:41;101874.23;;;0.74;93.76
34034;BME280;63481;52.588;22.472;2023-02-15T04:09:53;101870.80;;;0.75;93.86
34034;BME280;63481;52.588;22.472;2023-02-15T04:11:04;101872.23;;;0.82;93.94
34034;BME280;63481;52.588;22.472;2023-02-15T04:11:58;101868.49;;;0.83;93.95
34034;BME280;63481;52.588;22.472;2023-02-15T04:12:51;101868.97;;;0.89;93.85
34034;BME280;63481;52.588;22.472;2023-02-15T04:13:44;101869.08;;;0.90;93.88
34034;BME280;63481;52.588;22.472;2023-02-15T04:14:37;101869.71;;;0.94;93.75
34034;BME280;63481;52.588;22.472;2023-02-15T04:15:49;101869.42;;;0.95;93.84
34034;BME280;63481;52.588;22.472;2023-02-15T04:16:57;101871.95;;;0.99;93.82
34034;BME280;63481;52.588;22.472;2023-02-15T04:17:51;101868.92;;;0.99;93.83
34034;BME280;63481;52.588;22.472;2023-02-15T04:18:44;101869.52;;;1.04;93.72
34034;BME280;63481;52.588;22.472;2023-02-15T04:19:56;101869.25;;;1.05;93.60
34034;BME280;63481;52.588;22.472;2023-02-15T04:21:08;101867.27;;;1.03;93.77
34034;BME280;63481;52.588;22.472;2023-02-15T04:22:20;101867.39;;;0.99;93.57
34034;BME280;63481;52.588;22.472;2023-02-15T04:23:32;101867.77;;;0.96;93.57
34034;BME280;63481;52.588;22.472;2023-02-15T04:24:44;101866.89;;;0.98;93.56
34034;BME280;63481;52.588;22.472;2023-02-15T04:25:56;101866.73;;;0.98;93.63
34034;BME280;63481;52.588;22.472;2023-02-15T04:26:49;101863.38;;;0.99;93.64
34034;BME280;63481;52.588;22.472;2023-02-15T04:27:48;101859.94;;;0.95;93.62
34034;BME280;63481;52.588;22.472;2023-02-15T04:28:42;101862.05;;;0.95;93.56
34034;BME280;63481;52.588;22.472;2023-02-15T04:29:34;101860.91;;;0.94;93.51
34034;BME280;63481;52.588;22.472;2023-02-15T04:30:27;101862.71;;;0.91;93.46
34034;BME280;63481;52.588;22.472;2023-02-15T04:31:20;101861.24;;;0.89;93.52
34034;BME280;63481;52.588;22.472;2023-02-15T04:32:14;101859.00;;;0.96;93.55
34034;BME280;63481;52.588;22.472;2023-02-15T04:33:06;101859.98;;;1.00;93.68
34034;BME280;63481;52.588;22.472;2023-02-15T04:34:00;101862.17;;;0.99;93.66
34034;BME280;63481;52.588;22.472;2023-02-15T04:34:53;101856.00;;;0.97;93.59
34034;BME280;63481;52.588;22.472;2023-02-15T04:35:45;101858.61;;;0.95;93.66
34034;BME280;63481;52.588;22.472;2023-02-15T04:36:39;101858.27;;;0.92;93.80
34034;BME280;63481;52.588;22.472;2023-02-15T04:37:32;101857.69;;;0.90;93.67
34034;BME280;63481;52.588;22.472;2023-02-15T04:38:25;101858.99;;;0.86;93.74
34034;BME280;63481;52.588;22.472;2023-02-15T04:39:18;101857.98;;;0.86;93.66
34034;BME280;63481;52.588;22.472;2023-02-15T04:40:14;101857.42;;;0.81;93.69
34034;BME280;63481;52.588;22.472;2023-02-15T04:41:07;101858.63;;;0.74;93.58
34034;BME280;63481;52.588;22.472;2023-02-15T04:42:01;101861.23;;;0.69;93.63
34034;BME280;63481;52.588;22.472;2023-02-15T04:42:53;101861.23;;;0.67;93.64
34034;BME280;63481;52.588;22.472;2023-02-15T04:43:46;101864.02;;;0.67;93.62
34034;BME280;63481;52.588;22.472;2023-02-15T04:44:39;101860.71;;;0.79;93.78
34034;BME280;63481;52.588;22.472;2023-02-15T04:45:31;101860.88;;;0.87;93.89
34034;BME280;63481;52.588;22.472;2023-02-15T04:46:24;101858.66;;;0.86;93.82
34034;BME280;63481;52.588;22.472;2023-02-15T04:47:17;101855.97;;;0.85;93.90
34034;BME280;63481;52.588;22.472;2023-02-15T04:48:10;101853.43;;;0.86;93.88
34034;BME280;63481;52.588;22.472;2023-02-15T04:49:03;101857.14;;;0.90;93.75
34034;BME280;63481;52.588;22.472;2023-02-15T04:49:55;101855.27;;;0.97;93.87
34034;BME280;63481;52.588;22.472;2023-02-15T04:50:48;101853.75;;;1.04;93.76
34034;BME280;63481;52.588;22.472;2023-02-15T04:51:41;101856.69;;;1.04;93.50
34034;BME280;63481;52.588;22.472;2023-02-15T04:52:35;101858.73;;;1.03;93.42
34034;BME280;63481;52.588;22.472;2023-02-15T04:53:28;101857.51;;;1.00;93.29
34034;BME280;63481;52.588;22.472;2023-02-15T04:54:21;101856.52;;;0.94;93.18
34034;BME280;63481;52.588;22.472;2023-02-15T04:55:14;101857.58;;;0.94;93.17
34034;BME280;63481;52.588;22.472;2023-02-15T04:56:06;101859.08;;;0.95;93.19
34034;BME280;63481;52.588;22.472;2023-02-15T04:57:00;101859.14;;;0.89;93.04
34034;BME280;63481;52.588;22.472;2023-02-15T04:57:53;101858.92;;;0.90;92.99
34034;BME280;63481;52.588;22.472;2023-02-15T04:58:47;101858.90;;;0.87;93.03
34034;BME280;63481;52.588;22.472;2023-02-15T04:59:40;101858.95;;;0.84;93.00
34034;BME280;63481;52.588;22.472;2023-02-15T05:00:33;101860.91;;;0.86;92.97
34034;BME280;63481;52.588;22.472;2023-02-15T05:01:27;101866.25;;;0.87;92.96
34034;BME280;63481;52.588;22.472;2023-02-15T05:02:20;101860.98;;;0.88;92.85
34034;BME280;63481;52.588;22.472;2023-02-15T05:03:15;101862.86;;;0.84;92.96
34034;BME280;63481;52.588;22.472;2023-02-15T05:04:08;101864.66;;;0.83;92.76
34034;BME280;63481;52.588;22.472;2023-02-15T05:05:02;101869.02;;;0.78;92.81
34034;BME280;63481;52.588;22.472;2023-02-15T05:05:55;101866.98;;;0.77;92.87
34034;BME280;63481;52.588;22.472;2023-02-15T05:06:48;101862.98;;;0.77;92.93
34034;BME280;63481;52.588;22.472;2023-02-15T05:07:41;101864.01;;;0.77;92.91
34034;BME280;63481;52.588;22.472;2023-02-15T05:08:35;101869.42;;;0.77;92.98
34034;BME280;63481;52.588;22.472;2023-02-15T05:09:28;101865.00;;;0.75;92.91
34034;BME280;63481;52.588;22.472;2023-02-15T05:10:21;101870.52;;;0.74;93.00
34034;BME280;63481;52.588;22.472;2023-02-15T05:11:15;101871.13;;;0.73;92.88
34034;BME280;63481;52.588;22.472;2023-02-15T05:12:08;101872.33;;;0.71;92.90
34034;BME280;63481;52.588;22.472;2023-02-15T05:13:01;101875.17;;;0.67;92.86
34034;BME280;63481;52.588;22.472;2023-02-15T05:13:55;101877.60;;;0.68;92.72
34034;BME280;63481;52.588;22.472;2023-02-15T05:14:48;101878.70;;;0.65;92.81
34034;BME280;63481;52.588;22.472;2023-02-15T05:15:45;101878.08;;;0.66;92.89
34034;BME280;63481;52.588;22.472;2023-02-15T05:16:39;101878.72;;;0.64;92.74
34034;BME280;63481;52.588;22.472;2023-02-15T05:17:32;101879.33;;;0.65;92.87
34034;BME280;63481;52.588;22.472;2023-02-15T05:18:26;101883.56;;;0.68;92.85
34034;BME280;63481;52.588;22.472;2023-02-15T05:19:20;101882.52;;;0.70;92.84
34034;BME280;63481;52.588;22.472;2023-02-15T05:20:13;101879.59;;;0.70;92.87
34034;BME280;63481;52.588;22.472;2023-02-15T05:21:07;101876.92;;;0.73;92.87
34034;BME280;63481;52.588;22.472;2023-02-15T05:22:00;101880.98;;;0.75;92.90
34034;BME280;63481;52.588;22.472;2023-02-15T05:22:54;101883.27;;;0.72;92.82
34034;BME280;63481;52.588;22.472;2023-02-15T05:23:47;101882.53;;;0.72;92.78
34034;BME280;63481;52.588;22.472;2023-02-15T05:24:41;101881.86;;;0.67;92.84
34034;BME280;63481;52.588;22.472;2023-02-15T05:26:12;101879.15;;;0.63;92.78